createdAt,value
2022-09-15T04:03:51.054Z,72.82
2022-09-15T04:07:53.722Z,72.65
2022-09-15T04:11:56.777Z,72.92
2022-09-15T04:16:00.994Z,72.36
2022-09-15T04:20:05.174Z,72.23
2022-09-15T04:24:07.748Z,72.16
2022-09-15T04:28:10.382Z,72.55
2022-09-15T04:32:12.834Z,72.33
2022-09-15T04:36:19.168Z,71.97
2022-09-15T04:40:21.797Z,72.04
2022-09-15T04:44:24.810Z,71.62
2022-09-15T04:48:27.665Z,71.25
2022-09-15T04:52:31.991Z,71.66
2022-09-15T04:56:34.517Z,71.78
2022-09-15T05:00:43.571Z,72.02
2022-09-15T05:04:48.520Z,72.30
2022-09-15T05:08:54.911Z,72.28
2022-09-15T05:12:57.407Z,72.76
2022-09-15T05:16:59.893Z,72.74
2022-09-15T05:21:03.204Z,72.57
2022-09-15T05:25:07.396Z,72.20
2022-09-15T05:29:09.876Z,71.85
2022-09-15T05:33:12.322Z,71.31
2022-09-15T05:37:14.800Z,70.97
2022-09-15T05:41:20.938Z,71.82
2022-09-15T05:45:23.744Z,72.34
2022-09-15T05:49:26.230Z,71.86
2022-09-15T05:53:29.281Z,71.95
2022-09-15T05:57:33.089Z,71.40
2022-09-15T06:01:35.841Z,71.27
2022-09-15T06:05:38.364Z,70.50
2022-09-15T06:09:42.135Z,70.16
2022-09-15T06:13:46.964Z,69.96
2022-09-15T06:17:50.638Z,68.90
2022-09-15T06:21:54.106Z,68.85
2022-09-15T06:25:56.404Z,68.58
2022-09-15T06:30:00.385Z,68.58
2022-09-15T06:34:03.968Z,67.82
2022-09-15T06:38:06.485Z,67.99
2022-09-15T06:42:10.357Z,68.19
2022-09-15T06:46:20.856Z,68.31
2022-09-15T06:50:23.331Z,68.56
2022-09-15T06:54:25.818Z,68.03
2022-09-15T06:58:28.267Z,68.51
2022-09-15T07:02:32.546Z,68.84
2022-09-15T07:06:35.349Z,68.79
2022-09-15T07:10:37.777Z,68.90
2022-09-15T07:14:40.241Z,69.36
2022-09-15T07:18:44.742Z,68.40
2022-09-15T07:22:47.210Z,67.67
2022-09-15T07:26:49.691Z,67.16
2022-09-15T07:30:52.140Z,67.02
2022-09-15T07:34:58.320Z,66.39
2022-09-15T07:39:04.310Z,65.91
2022-09-15T07:43:07.729Z,65.47
2022-09-15T07:47:10.391Z,65.53
2022-09-15T07:51:15.057Z,65.44
2022-09-15T07:55:18.457Z,65.74
2022-09-15T07:59:20.801Z,65.68
2022-09-15T08:03:23.240Z,66.54
2022-09-15T08:07:27.018Z,66.54
2022-09-15T08:11:30.214Z,65.20
2022-09-15T08:15:32.654Z,64.49
2022-09-15T08:19:36.672Z,63.34
2022-09-15T08:23:41.094Z,62.53
2022-09-15T08:27:43.534Z,63.21
2022-09-15T08:31:47.136Z,62.28
2022-09-15T08:35:49.658Z,62.23
2022-09-15T08:39:53.453Z,62.10
2022-09-15T08:44:01.929Z,61.18
2022-09-15T08:48:08.420Z,62.92
2022-09-15T08:52:17.118Z,61.67
2022-09-15T08:56:22.187Z,61.58
2022-09-15T09:00:24.708Z,61.34
2022-09-15T09:04:44.043Z,63.08
2022-09-15T09:09:15.819Z,61.77
2022-09-15T09:13:35.439Z,62.25
2022-09-15T09:17:53.226Z,63.32
2022-09-15T09:21:59.690Z,62.83
2022-09-15T09:26:04.118Z,61.95
2022-09-15T09:30:15.911Z,61.78
2022-09-15T09:34:24.970Z,59.38
2022-09-15T09:38:31.222Z,59.87
2022-09-15T09:42:37.074Z,59.85
2022-09-15T09:46:41.335Z,61.00
2022-09-15T09:50:44.146Z,59.97
2022-09-15T09:54:51.519Z,59.98
2022-09-15T09:58:55.207Z,62.06
2022-09-15T10:02:58.995Z,61.03
2022-09-15T10:07:01.544Z,59.27
2022-09-15T10:11:08.464Z,59.77
2022-09-15T10:15:24.646Z,60.23
2022-09-15T10:19:30.851Z,58.48
2022-09-15T10:23:34.441Z,58.21
2022-09-15T10:27:37.727Z,57.40
2022-09-15T10:31:40.518Z,57.02
2022-09-15T10:35:44.392Z,56.71
2022-09-15T10:39:54.446Z,56.28
2022-09-15T10:44:18.534Z,56.66
2022-09-15T10:48:54.987Z,56.61
2022-09-15T10:53:14.127Z,57.23
2022-09-15T10:57:29.867Z,55.52
2022-09-15T11:01:46.554Z,54.00
2022-09-15T11:06:02.234Z,54.46
2022-09-15T11:10:14.277Z,54.21
2022-09-15T11:14:31.823Z,54.08
2022-09-15T11:18:55.606Z,51.64
2022-09-15T11:23:03.335Z,52.84
2022-09-15T11:27:16.678Z,50.90
2022-09-15T11:31:25.178Z,52.17
2022-09-15T11:35:34.009Z,52.20
2022-09-15T11:39:41.261Z,50.31
2022-09-15T11:43:54.935Z,50.69
2022-09-15T11:48:01.892Z,50.40
2022-09-15T11:52:13.447Z,49.88
2022-09-15T11:56:22.303Z,50.21
2022-09-15T12:00:26.247Z,47.78
2022-09-15T12:04:33.199Z,46.18
2022-09-15T12:08:41.635Z,44.53
2022-09-15T12:12:46.529Z,44.77
2022-09-15T12:16:51.852Z,45.07
2022-09-15T12:21:01.022Z,45.60
2022-09-15T12:25:10.218Z,45.39
2022-09-15T12:29:32.626Z,46.67
2022-09-15T12:33:46.434Z,46.78
2022-09-15T12:37:53.868Z,48.26
2022-09-15T12:42:05.598Z,47.53
2022-09-15T12:46:18.338Z,48.08
2022-09-15T12:50:29.693Z,46.34
2022-09-15T12:54:35.218Z,46.34
2022-09-15T12:58:40.094Z,46.34
2022-09-15T13:02:45.073Z,45.97
2022-09-15T13:07:31.786Z,47.34
2022-09-15T13:11:40.138Z,47.74
2022-09-15T13:15:47.402Z,47.98
2022-09-15T13:19:54.119Z,48.40
2022-09-15T13:23:56.886Z,47.80
2022-09-15T13:28:03.365Z,46.07
2022-09-15T13:32:16.244Z,46.48
2022-09-15T13:38:03.749Z,47.28
2022-09-15T13:41:25.135Z,47.12
2022-09-15T13:45:46.946Z,46.17
2022-09-15T13:49:53.398Z,46.28
2022-09-15T13:53:59.677Z,48.26
2022-09-15T14:02:29.359Z,47.92
2022-09-15T14:06:37.356Z,47.38
2022-09-15T14:10:46.528Z,46.77
2022-09-15T14:14:53.958Z,47.17
2022-09-15T14:19:00.028Z,48.68
2022-09-15T14:23:02.574Z,48.04
2022-09-15T14:27:10.476Z,46.89
2022-09-15T14:31:12.930Z,47.54
2022-09-15T14:35:20.156Z,48.14
2022-09-15T14:39:24.082Z,49.15
2022-09-15T14:43:28.291Z,49.56
2022-09-15T14:47:31.237Z,49.80
2022-09-15T14:51:36.162Z,48.44
2022-09-15T14:55:48.850Z,48.88
2022-09-15T14:59:56.633Z,48.53
2022-09-15T15:04:09.731Z,47.93
2022-09-15T15:08:26.672Z,48.73
2022-09-15T15:12:33.009Z,48.58
2022-09-15T15:16:35.980Z,49.85
2022-09-15T15:20:50.261Z,49.61
2022-09-15T15:24:54.667Z,49.83
2022-09-15T15:28:57.137Z,50.15
2022-09-15T15:33:01.143Z,50.78
2022-09-15T15:37:04.306Z,51.18
2022-09-15T15:41:09.010Z,52.10
2022-09-15T15:45:24.034Z,51.76
2022-09-15T15:49:29.380Z,52.04
2022-09-15T15:53:32.053Z,53.73
2022-09-15T15:57:39.289Z,55.59
2022-09-15T16:01:41.865Z,57.61
2022-09-15T16:05:46.319Z,59.14
2022-09-15T16:09:50.302Z,60.68
2022-09-15T16:13:54.460Z,61.06
2022-09-15T16:17:56.918Z,60.20
2022-09-15T16:21:59.638Z,59.81
2022-09-15T16:26:04.242Z,59.24
2022-09-15T16:30:11.924Z,58.41
2022-09-15T16:34:17.868Z,58.97
2022-09-15T16:38:20.935Z,59.34
2022-09-15T16:42:23.371Z,59.49
2022-09-15T16:46:27.210Z,60.34
2022-09-15T16:50:31.164Z,60.52
2022-09-15T16:54:33.998Z,60.71
2022-09-15T16:58:36.461Z,61.10
2022-09-15T17:02:40.270Z,60.48
2022-09-15T17:06:43.058Z,60.06
2022-09-15T17:10:46.056Z,60.84
2022-09-15T17:14:48.517Z,61.38
2022-09-15T17:18:52.294Z,60.71
2022-09-15T17:22:55.800Z,59.72
2022-09-15T17:26:58.336Z,60.81
2022-09-15T17:31:02.300Z,60.55
2022-09-15T17:35:15.714Z,61.40
2022-09-15T17:39:18.179Z,63.04
2022-09-15T17:43:22.931Z,63.01
2022-09-15T17:47:25.366Z,62.23
2022-09-15T17:51:29.384Z,62.40
2022-09-15T17:55:33.530Z,62.34
2022-09-15T17:59:35.986Z,62.47
2022-09-15T18:03:38.861Z,62.92
2022-09-15T18:07:42.720Z,63.06
2022-09-15T18:11:45.192Z,63.50
2022-09-15T18:15:48.905Z,63.05
2022-09-15T18:19:51.705Z,63.06
2022-09-15T18:23:55.830Z,63.45
2022-09-15T18:27:59.198Z,64.14
2022-09-15T18:32:03.026Z,63.68
2022-09-15T18:36:06.977Z,64.64
2022-09-15T18:40:12.329Z,65.75
2022-09-15T18:44:14.862Z,63.92
2022-09-15T18:48:17.484Z,66.17
2022-09-15T18:52:19.955Z,66.08
2022-09-15T18:56:24.086Z,67.20
2022-09-15T19:00:28.651Z,67.30
2022-09-15T19:04:33.326Z,66.93
2022-09-15T19:08:37.785Z,66.78
2022-09-15T19:12:41.769Z,67.67
2022-09-15T19:16:56.968Z,67.86
2022-09-15T19:21:05.470Z,68.87
2022-09-15T19:25:09.627Z,69.23
2022-09-15T19:29:14.037Z,69.05
2022-09-15T19:33:16.528Z,69.03
2022-09-15T19:37:20.725Z,69.55
2022-09-15T19:41:23.259Z,69.55
2022-09-15T19:45:27.406Z,69.78
2022-09-15T19:49:29.906Z,70.50
2022-09-15T19:53:32.706Z,70.77
2022-09-15T19:57:35.477Z,71.01
2022-09-15T20:01:39.338Z,70.78
2022-09-15T20:05:41.804Z,70.34
2022-09-15T20:09:44.344Z,69.70
2022-09-15T20:13:46.881Z,69.89
2022-09-15T20:17:50.662Z,69.88
2022-09-15T20:21:54.161Z,69.70
2022-09-15T20:25:57.144Z,69.48
2022-09-15T20:29:59.596Z,69.03
2022-09-15T20:34:03.468Z,68.03
2022-09-15T20:38:06.399Z,68.42
2022-09-15T20:42:08.864Z,67.76
2022-09-15T20:46:14.295Z,68.13
2022-09-15T20:50:18.209Z,68.62
2022-09-15T20:54:20.743Z,68.46
2022-09-15T20:58:23.642Z,68.92
